sensor_id;sensor_type;location;lat;lon;timestamp;P1;durP1;ratioP1;P2;durP2;ratioP2
10481;SDS011;5288;42.334;23.876;2022-11-25T00:00:53;2.17;;;1.50;;
10481;SDS011;5288;42.334;23.876;2022-11-25T00:03:28;1.70;;;1.50;;
10481;SDS011;5288;42.334;23.876;2022-11-25T00:05:57;1.90;;;1.60;;
10481;SDS011;5288;42.334;23.876;2022-11-25T00:08:33;1.40;;;1.30;;
10481;SDS011;5288;42.334;23.876;2022-11-25T00:11:00;3.50;;;1.90;;
10481;SDS011;5288;42.334;23.876;2022-11-25T00:13:27;1.97;;;1.77;;
10481;SDS011;5288;42.334;23.876;2022-11-25T00:15:54;1.43;;;1.33;;
10481;SDS011;5288;42.334;23.876;2022-11-25T00:18:21;2.80;;;2.10;;
10481;SDS011;5288;42.334;23.876;2022-11-25T00:20:48;2.60;;;1.27;;
10481;SDS011;5288;42.334;23.876;2022-11-25T00:23:16;1.90;;;1.60;;
10481;SDS011;5288;42.334;23.876;2022-11-25T00:25:43;2.13;;;1.50;;
10481;SDS011;5288;42.334;23.876;2022-11-25T00:28:10;2.57;;;1.20;;
10481;SDS011;5288;42.334;23.876;2022-11-25T00:30:38;1.47;;;1.33;;
10481;SDS011;5288;42.334;23.876;2022-11-25T00:33:05;1.43;;;1.30;;
10481;SDS011;5288;42.334;23.876;2022-11-25T00:35:33;2.07;;;1.50;;
10481;SDS011;5288;42.334;23.876;2022-11-25T00:38:00;2.37;;;1.97;;
10481;SDS011;5288;42.334;23.876;2022-11-25T00:40:28;2.23;;;1.80;;
10481;SDS011;5288;42.334;23.876;2022-11-25T00:42:55;1.97;;;1.80;;
10481;SDS011;5288;42.334;23.876;2022-11-25T00:45:40;2.10;;;1.90;;
10481;SDS011;5288;42.334;23.876;2022-11-25T00:48:07;2.33;;;2.13;;
10481;SDS011;5288;42.334;23.876;2022-11-25T00:50:34;2.03;;;1.90;;
10481;SDS011;5288;42.334;23.876;2022-11-25T00:53:01;2.13;;;1.60;;
10481;SDS011;5288;42.334;23.876;2022-11-25T00:55:29;3.27;;;2.20;;
10481;SDS011;5288;42.334;23.876;2022-11-25T00:58:17;3.10;;;2.43;;
10481;SDS011;5288;42.334;23.876;2022-11-25T01:00:44;2.33;;;2.10;;
10481;SDS011;5288;42.334;23.876;2022-11-25T01:03:10;2.17;;;1.87;;
10481;SDS011;5288;42.334;23.876;2022-11-25T01:05:37;1.67;;;1.37;;
10481;SDS011;5288;42.334;23.876;2022-11-25T01:08:04;3.83;;;1.73;;
10481;SDS011;5288;42.334;23.876;2022-11-25T01:10:33;1.93;;;1.50;;
10481;SDS011;5288;42.334;23.876;2022-11-25T01:13:00;1.63;;;1.43;;
10481;SDS011;5288;42.334;23.876;2022-11-25T01:15:27;5.67;;;2.13;;
10481;SDS011;5288;42.334;23.876;2022-11-25T01:17:54;3.23;;;1.80;;
10481;SDS011;5288;42.334;23.876;2022-11-25T01:20:21;2.33;;;2.13;;
10481;SDS011;5288;42.334;23.876;2022-11-25T01:22:48;2.10;;;1.83;;
10481;SDS011;5288;42.334;23.876;2022-11-25T01:25:17;1.67;;;1.53;;
10481;SDS011;5288;42.334;23.876;2022-11-25T01:27:45;2.17;;;1.80;;
10481;SDS011;5288;42.334;23.876;2022-11-25T01:30:12;2.37;;;2.03;;
10481;SDS011;5288;42.334;23.876;2022-11-25T01:32:40;2.10;;;1.90;;
10481;SDS011;5288;42.334;23.876;2022-11-25T01:35:07;2.00;;;1.67;;
10481;SDS011;5288;42.334;23.876;2022-11-25T01:37:34;2.70;;;1.80;;
10481;SDS011;5288;42.334;23.876;2022-11-25T01:40:01;2.60;;;1.47;;
10481;SDS011;5288;42.334;23.876;2022-11-25T01:42:29;2.33;;;1.70;;
10481;SDS011;5288;42.334;23.876;2022-11-25T01:45:17;4.60;;;1.80;;
10481;SDS011;5288;42.334;23.876;2022-11-25T01:48:02;1.73;;;1.57;;
10481;SDS011;5288;42.334;23.876;2022-11-25T01:50:36;2.07;;;1.90;;
10481;SDS011;5288;42.334;23.876;2022-11-25T01:53:04;1.87;;;1.70;;
10481;SDS011;5288;42.334;23.876;2022-11-25T01:55:34;2.83;;;1.87;;
10481;SDS011;5288;42.334;23.876;2022-11-25T01:58:05;2.30;;;1.90;;
10481;SDS011;5288;42.334;23.876;2022-11-25T02:00:37;2.90;;;2.10;;
10481;SDS011;5288;42.334;23.876;2022-11-25T02:03:04;2.70;;;2.00;;
10481;SDS011;5288;42.334;23.876;2022-11-25T02:05:34;2.17;;;1.97;;
10481;SDS011;5288;42.334;23.876;2022-11-25T02:08:08;2.47;;;2.23;;
10481;SDS011;5288;42.334;23.876;2022-11-25T02:10:35;3.03;;;2.10;;
10481;SDS011;5288;42.334;23.876;2022-11-25T02:13:03;2.13;;;1.90;;
10481;SDS011;5288;42.334;23.876;2022-11-25T02:15:32;2.33;;;2.13;;
10481;SDS011;5288;42.334;23.876;2022-11-25T02:18:01;2.90;;;2.20;;
10481;SDS011;5288;42.334;23.876;2022-11-25T02:20:28;2.30;;;2.10;;
10481;SDS011;5288;42.334;23.876;2022-11-25T02:22:57;1.67;;;1.57;;
10481;SDS011;5288;42.334;23.876;2022-11-25T02:25:31;1.80;;;1.67;;
10481;SDS011;5288;42.334;23.876;2022-11-25T02:28:00;2.30;;;2.03;;
10481;SDS011;5288;42.334;23.876;2022-11-25T02:30:30;2.43;;;2.23;;
10481;SDS011;5288;42.334;23.876;2022-11-25T02:32:58;2.00;;;1.77;;
10481;SDS011;5288;42.334;23.876;2022-11-25T02:35:27;3.23;;;1.93;;
10481;SDS011;5288;42.334;23.876;2022-11-25T02:37:58;4.50;;;2.10;;
10481;SDS011;5288;42.334;23.876;2022-11-25T02:40:28;2.50;;;2.10;;
10481;SDS011;5288;42.334;23.876;2022-11-25T02:42:58;1.70;;;1.60;;
10481;SDS011;5288;42.334;23.876;2022-11-25T02:45:27;1.97;;;1.77;;
10481;SDS011;5288;42.334;23.876;2022-11-25T02:48:02;2.40;;;2.10;;
10481;SDS011;5288;42.334;23.876;2022-11-25T02:50:29;3.67;;;2.00;;
10481;SDS011;5288;42.334;23.876;2022-11-25T02:52:56;2.97;;;2.63;;
10481;SDS011;5288;42.334;23.876;2022-11-25T02:55:23;4.43;;;1.90;;
10481;SDS011;5288;42.334;23.876;2022-11-25T02:57:52;3.20;;;2.37;;
10481;SDS011;5288;42.334;23.876;2022-11-25T03:00:19;2.30;;;2.10;;
10481;SDS011;5288;42.334;23.876;2022-11-25T03:02:46;3.07;;;2.30;;
10481;SDS011;5288;42.334;23.876;2022-11-25T03:05:16;4.73;;;3.30;;
10481;SDS011;5288;42.334;23.876;2022-11-25T03:07:43;4.27;;;3.03;;
10481;SDS011;5288;42.334;23.876;2022-11-25T03:10:10;3.97;;;2.67;;
10481;SDS011;5288;42.334;23.876;2022-11-25T03:12:37;3.93;;;3.10;;
10481;SDS011;5288;42.334;23.876;2022-11-25T03:15:06;3.57;;;2.83;;
10481;SDS011;5288;42.334;23.876;2022-11-25T03:17:34;3.03;;;2.73;;
10481;SDS011;5288;42.334;23.876;2022-11-25T03:20:01;4.47;;;3.50;;
10481;SDS011;5288;42.334;23.876;2022-11-25T03:22:28;3.57;;;1.83;;
10481;SDS011;5288;42.334;23.876;2022-11-25T03:24:55;4.83;;;2.50;;
10481;SDS011;5288;42.334;23.876;2022-11-25T03:27:22;5.33;;;4.07;;
10481;SDS011;5288;42.334;23.876;2022-11-25T03:29:49;2.23;;;2.03;;
10481;SDS011;5288;42.334;23.876;2022-11-25T03:32:18;1.87;;;1.60;;
10481;SDS011;5288;42.334;23.876;2022-11-25T03:34:44;2.83;;;1.53;;
10481;SDS011;5288;42.334;23.876;2022-11-25T03:37:11;1.70;;;1.60;;
10481;SDS011;5288;42.334;23.876;2022-11-25T03:39:38;2.63;;;2.00;;
10481;SDS011;5288;42.334;23.876;2022-11-25T03:42:05;1.63;;;1.50;;
10481;SDS011;5288;42.334;23.876;2022-11-25T03:44:32;2.00;;;1.70;;
10481;SDS011;5288;42.334;23.876;2022-11-25T03:46:59;1.87;;;1.77;;
10481;SDS011;5288;42.334;23.876;2022-11-25T03:49:28;1.40;;;1.30;;
10481;SDS011;5288;42.334;23.876;2022-11-25T03:51:55;3.63;;;2.37;;
10481;SDS011;5288;42.334;23.876;2022-11-25T03:54:22;1.87;;;1.50;;
10481;SDS011;5288;42.334;23.876;2022-11-25T03:56:49;2.50;;;1.50;;
10481;SDS011;5288;42.334;23.876;2022-11-25T03:59:16;1.80;;;1.50;;
10481;SDS011;5288;42.334;23.876;2022-11-25T04:01:43;3.70;;;1.63;;
10481;SDS011;5288;42.334;23.876;2022-11-25T04:04:10;2.80;;;1.40;;
10481;SDS011;5288;42.334;23.876;2022-11-25T04:06:38;1.37;;;1.20;;
10481;SDS011;5288;42.334;23.876;2022-11-25T04:09:05;2.40;;;1.30;;
10481;SDS011;5288;42.334;23.876;2022-11-25T04:11:32;3.27;;;1.60;;
10481;SDS011;5288;42.334;23.876;2022-11-25T04:14:17;1.70;;;1.60;;
10481;SDS011;5288;42.334;23.876;2022-11-25T04:16:44;1.60;;;1.43;;
10481;SDS011;5288;42.334;23.876;2022-11-25T04:19:11;2.50;;;1.83;;
10481;SDS011;5288;42.334;23.876;2022-11-25T04:21:39;1.77;;;1.37;;
10481;SDS011;5288;42.334;23.876;2022-11-25T04:24:06;2.17;;;1.50;;
10481;SDS011;5288;42.334;23.876;2022-11-25T04:26:34;1.93;;;1.47;;
10481;SDS011;5288;42.334;23.876;2022-11-25T04:29:01;3.37;;;1.93;;
10481;SDS011;5288;42.334;23.876;2022-11-25T04:31:28;2.27;;;1.60;;
10481;SDS011;5288;42.334;23.876;2022-11-25T04:33:55;1.90;;;1.57;;
10481;SDS011;5288;42.334;23.876;2022-11-25T04:36:22;2.20;;;1.70;;
10481;SDS011;5288;42.334;23.876;2022-11-25T04:38:50;2.10;;;1.50;;
10481;SDS011;5288;42.334;23.876;2022-11-25T04:41:17;4.90;;;1.90;;
10481;SDS011;5288;42.334;23.876;2022-11-25T04:43:44;2.40;;;2.00;;
10481;SDS011;5288;42.334;23.876;2022-11-25T04:46:12;1.93;;;1.73;;
10481;SDS011;5288;42.334;23.876;2022-11-25T04:48:42;2.00;;;1.50;;
10481;SDS011;5288;42.334;23.876;2022-11-25T04:51:09;3.73;;;1.57;;
10481;SDS011;5288;42.334;23.876;2022-11-25T04:53:36;2.23;;;1.63;;
10481;SDS011;5288;42.334;23.876;2022-11-25T04:56:05;2.30;;;1.80;;
10481;SDS011;5288;42.334;23.876;2022-11-25T04:58:32;1.60;;;1.50;;
10481;SDS011;5288;42.334;23.876;2022-11-25T05:01:16;5.03;;;1.90;;
10481;SDS011;5288;42.334;23.876;2022-11-25T05:03:43;1.77;;;1.67;;
10481;SDS011;5288;42.334;23.876;2022-11-25T05:06:10;1.53;;;1.33;;
10481;SDS011;5288;42.334;23.876;2022-11-25T05:08:37;2.10;;;1.90;;
10481;SDS011;5288;42.334;23.876;2022-11-25T05:11:06;1.83;;;1.73;;
10481;SDS011;5288;42.334;23.876;2022-11-25T05:13:33;1.83;;;1.50;;
10481;SDS011;5288;42.334;23.876;2022-11-25T05:16:00;1.70;;;1.50;;
10481;SDS011;5288;42.334;23.876;2022-11-25T05:18:27;2.33;;;1.80;;
10481;SDS011;5288;42.334;23.876;2022-11-25T05:20:54;3.17;;;1.47;;
10481;SDS011;5288;42.334;23.876;2022-11-25T05:23:21;1.50;;;1.40;;
10481;SDS011;5288;42.334;23.876;2022-11-25T05:25:48;2.07;;;1.60;;
10481;SDS011;5288;42.334;23.876;2022-11-25T05:28:16;2.00;;;1.80;;
10481;SDS011;5288;42.334;23.876;2022-11-25T05:30:43;2.17;;;1.60;;
10481;SDS011;5288;42.334;23.876;2022-11-25T05:33:10;10.07;;;7.40;;
10481;SDS011;5288;42.334;23.876;2022-11-25T05:35:37;5.77;;;3.80;;
10481;SDS011;5288;42.334;23.876;2022-11-25T05:38:04;4.53;;;2.60;;
10481;SDS011;5288;42.334;23.876;2022-11-25T05:40:31;1.87;;;1.60;;
10481;SDS011;5288;42.334;23.876;2022-11-25T05:42:58;4.73;;;3.90;;
10481;SDS011;5288;42.334;23.876;2022-11-25T05:45:28;2.63;;;1.90;;
10481;SDS011;5288;42.334;23.876;2022-11-25T05:47:55;2.77;;;2.20;;
10481;SDS011;5288;42.334;23.876;2022-11-25T05:50:22;1.60;;;1.20;;
10481;SDS011;5288;42.334;23.876;2022-11-25T05:52:49;1.80;;;1.70;;
10481;SDS011;5288;42.334;23.876;2022-11-25T05:55:16;1.40;;;1.30;;
10481;SDS011;5288;42.334;23.876;2022-11-25T05:57:43;2.10;;;1.50;;
10481;SDS011;5288;42.334;23.876;2022-11-25T06:00:11;2.90;;;1.80;;
10481;SDS011;5288;42.334;23.876;2022-11-25T06:02:40;2.27;;;2.07;;
10481;SDS011;5288;42.334;23.876;2022-11-25T06:05:07;1.90;;;1.67;;
10481;SDS011;5288;42.334;23.876;2022-11-25T06:07:34;2.90;;;1.23;;
10481;SDS011;5288;42.334;23.876;2022-11-25T06:10:02;2.17;;;1.97;;
10481;SDS011;5288;42.334;23.876;2022-11-25T06:12:29;3.40;;;2.40;;
10481;SDS011;5288;42.334;23.876;2022-11-25T06:14:56;3.77;;;2.47;;
10481;SDS011;5288;42.334;23.876;2022-11-25T06:17:23;4.20;;;3.60;;
10481;SDS011;5288;42.334;23.876;2022-11-25T06:19:51;5.03;;;4.37;;
10481;SDS011;5288;42.334;23.876;2022-11-25T06:22:18;2.53;;;1.73;;
10481;SDS011;5288;42.334;23.876;2022-11-25T06:24:45;2.13;;;1.97;;
10481;SDS011;5288;42.334;23.876;2022-11-25T06:27:12;2.00;;;1.60;;
10481;SDS011;5288;42.334;23.876;2022-11-25T06:29:39;2.37;;;1.70;;
10481;SDS011;5288;42.334;23.876;2022-11-25T06:32:06;2.40;;;2.17;;
10481;SDS011;5288;42.334;23.876;2022-11-25T06:34:33;4.67;;;3.17;;
10481;SDS011;5288;42.334;23.876;2022-11-25T06:37:02;2.90;;;2.10;;
10481;SDS011;5288;42.334;23.876;2022-11-25T06:39:28;1.83;;;1.37;;
10481;SDS011;5288;42.334;23.876;2022-11-25T06:41:55;7.50;;;6.43;;
10481;SDS011;5288;42.334;23.876;2022-11-25T06:44:22;2.40;;;2.03;;
10481;SDS011;5288;42.334;23.876;2022-11-25T06:46:49;4.43;;;1.83;;
10481;SDS011;5288;42.334;23.876;2022-11-25T06:49:16;1.70;;;1.60;;
10481;SDS011;5288;42.334;23.876;2022-11-25T06:51:43;1.57;;;1.43;;
10481;SDS011;5288;42.334;23.876;2022-11-25T06:54:12;4.67;;;2.67;;
10481;SDS011;5288;42.334;23.876;2022-11-25T06:56:39;1.70;;;1.50;;
10481;SDS011;5288;42.334;23.876;2022-11-25T06:59:06;4.03;;;3.10;;
10481;SDS011;5288;42.334;23.876;2022-11-25T07:01:33;2.60;;;2.10;;
10481;SDS011;5288;42.334;23.876;2022-11-25T07:04:01;3.27;;;2.40;;
10481;SDS011;5288;42.334;23.876;2022-11-25T07:06:30;3.07;;;2.20;;
10481;SDS011;5288;42.334;23.876;2022-11-25T07:08:58;7.20;;;3.83;;
10481;SDS011;5288;42.334;23.876;2022-11-25T07:11:28;3.20;;;2.87;;
10481;SDS011;5288;42.334;23.876;2022-11-25T07:13:56;2.50;;;1.80;;
10481;SDS011;5288;42.334;23.876;2022-11-25T07:16:25;3.40;;;2.20;;
10481;SDS011;5288;42.334;23.876;2022-11-25T07:18:53;2.10;;;1.43;;
10481;SDS011;5288;42.334;23.876;2022-11-25T07:21:20;2.30;;;1.97;;
10481;SDS011;5288;42.334;23.876;2022-11-25T07:23:49;1.80;;;1.53;;
10481;SDS011;5288;42.334;23.876;2022-11-25T07:26:18;4.70;;;4.07;;
10481;SDS011;5288;42.334;23.876;2022-11-25T07:28:48;1.90;;;1.47;;
10481;SDS011;5288;42.334;23.876;2022-11-25T07:31:16;8.73;;;6.17;;
10481;SDS011;5288;42.334;23.876;2022-11-25T07:33:45;2.50;;;1.87;;
10481;SDS011;5288;42.334;23.876;2022-11-25T07:36:13;3.20;;;2.83;;
10481;SDS011;5288;42.334;23.876;2022-11-25T07:38:41;16.80;;;15.03;;
10481;SDS011;5288;42.334;23.876;2022-11-25T07:41:08;6.80;;;5.90;;
10481;SDS011;5288;42.334;23.876;2022-11-25T07:43:37;6.87;;;5.70;;
10481;SDS011;5288;42.334;23.876;2022-11-25T07:46:10;8.07;;;7.10;;
10481;SDS011;5288;42.334;23.876;2022-11-25T07:48:39;6.83;;;5.37;;
10481;SDS011;5288;42.334;23.876;2022-11-25T07:51:12;3.37;;;2.63;;
10481;SDS011;5288;42.334;23.876;2022-11-25T07:53:40;8.00;;;7.10;;
10481;SDS011;5288;42.334;23.876;2022-11-25T07:56:07;11.43;;;8.33;;
10481;SDS011;5288;42.334;23.876;2022-11-25T07:58:34;3.07;;;2.17;;
10481;SDS011;5288;42.334;23.876;2022-11-25T08:01:02;2.07;;;1.87;;
10481;SDS011;5288;42.334;23.876;2022-11-25T08:03:32;5.20;;;3.50;;
10481;SDS011;5288;42.334;23.876;2022-11-25T08:05:59;5.67;;;3.87;;
10481;SDS011;5288;42.334;23.876;2022-11-25T08:08:27;1.80;;;1.70;;
10481;SDS011;5288;42.334;23.876;2022-11-25T08:10:54;4.13;;;1.57;;
10481;SDS011;5288;42.334;23.876;2022-11-25T08:13:21;1.67;;;1.57;;
10481;SDS011;5288;42.334;23.876;2022-11-25T08:15:48;2.37;;;2.17;;
10481;SDS011;5288;42.334;23.876;2022-11-25T08:18:15;2.23;;;1.87;;
10481;SDS011;5288;42.334;23.876;2022-11-25T08:20:44;3.03;;;2.10;;
10481;SDS011;5288;42.334;23.876;2022-11-25T08:23:11;2.60;;;2.10;;
10481;SDS011;5288;42.334;23.876;2022-11-25T08:25:38;2.03;;;1.70;;
10481;SDS011;5288;42.334;23.876;2022-11-25T08:28:06;1.60;;;1.50;;
10481;SDS011;5288;42.334;23.876;2022-11-25T08:30:33;2.10;;;1.77;;
10481;SDS011;5288;42.334;23.876;2022-11-25T08:33:01;1.90;;;1.43;;
10481;SDS011;5288;42.334;23.876;2022-11-25T08:35:31;3.40;;;1.40;;
10481;SDS011;5288;42.334;23.876;2022-11-25T08:38:03;1.90;;;1.53;;
10481;SDS011;5288;42.334;23.876;2022-11-25T08:40:31;4.27;;;1.77;;
10481;SDS011;5288;42.334;23.876;2022-11-25T08:42:58;3.87;;;2.07;;
10481;SDS011;5288;42.334;23.876;2022-11-25T08:45:25;2.93;;;2.50;;
10481;SDS011;5288;42.334;23.876;2022-11-25T08:47:52;2.77;;;1.90;;
10481;SDS011;5288;42.334;23.876;2022-11-25T08:50:20;2.43;;;1.70;;
10481;SDS011;5288;42.334;23.876;2022-11-25T08:52:48;1.80;;;1.70;;
10481;SDS011;5288;42.334;23.876;2022-11-25T08:55:17;2.10;;;1.60;;
10481;SDS011;5288;42.334;23.876;2022-11-25T08:57:44;2.00;;;1.80;;
10481;SDS011;5288;42.334;23.876;2022-11-25T09:00:11;2.23;;;1.60;;
10481;SDS011;5288;42.334;23.876;2022-11-25T09:02:39;4.27;;;2.20;;
10481;SDS011;5288;42.334;23.876;2022-11-25T09:05:06;1.97;;;1.47;;
10481;SDS011;5288;42.334;23.876;2022-11-25T09:07:36;4.00;;;1.50;;
10481;SDS011;5288;42.334;23.876;2022-11-25T09:10:03;9.97;;;1.70;;
10481;SDS011;5288;42.334;23.876;2022-11-25T09:12:32;1.40;;;1.30;;
10481;SDS011;5288;42.334;23.876;2022-11-25T09:14:59;3.10;;;1.40;;
10481;SDS011;5288;42.334;23.876;2022-11-25T09:17:26;1.60;;;1.40;;
10481;SDS011;5288;42.334;23.876;2022-11-25T09:19:53;1.87;;;1.70;;
10481;SDS011;5288;42.334;23.876;2022-11-25T09:22:20;5.63;;;1.20;;
10481;SDS011;5288;42.334;23.876;2022-11-25T09:24:47;2.10;;;1.30;;
10481;SDS011;5288;42.334;23.876;2022-11-25T09:27:15;2.13;;;1.40;;
10481;SDS011;5288;42.334;23.876;2022-11-25T09:29:43;2.40;;;2.10;;
10481;SDS011;5288;42.334;23.876;2022-11-25T09:32:10;2.30;;;1.47;;
10481;SDS011;5288;42.334;23.876;2022-11-25T09:34:37;1.63;;;1.30;;
10481;SDS011;5288;42.334;23.876;2022-11-25T09:37:04;1.83;;;1.27;;
10481;SDS011;5288;42.334;23.876;2022-11-25T09:39:31;1.40;;;1.17;;
10481;SDS011;5288;42.334;23.876;2022-11-25T09:42:03;2.20;;;1.77;;
10481;SDS011;5288;42.334;23.876;2022-11-25T09:45:05;1.60;;;1.50;;
10481;SDS011;5288;42.334;23.876;2022-11-25T09:48:02;1.90;;;1.23;;
10481;SDS011;5288;42.334;23.876;2022-11-25T09:50:40;1.43;;;1.33;;
10481;SDS011;5288;42.334;23.876;2022-11-25T09:53:17;2.50;;;1.47;;
10481;SDS011;5288;42.334;23.876;2022-11-25T09:55:53;1.70;;;1.40;;
10481;SDS011;5288;42.334;23.876;2022-11-25T09:58:25;2.33;;;1.47;;
10481;SDS011;5288;42.334;23.876;2022-11-25T10:00:59;1.47;;;1.30;;
10481;SDS011;5288;42.334;23.876;2022-11-25T10:03:31;2.53;;;2.27;;
10481;SDS011;5288;42.334;23.876;2022-11-25T10:06:05;1.80;;;1.60;;
10481;SDS011;5288;42.334;23.876;2022-11-25T10:08:38;3.77;;;1.60;;
10481;SDS011;5288;42.334;23.876;2022-11-25T10:11:11;2.07;;;1.50;;
10481;SDS011;5288;42.334;23.876;2022-11-25T10:13:46;4.47;;;1.87;;
10481;SDS011;5288;42.334;23.876;2022-11-25T10:16:22;2.17;;;1.00;;
10481;SDS011;5288;42.334;23.876;2022-11-25T10:18:58;2.33;;;1.30;;
10481;SDS011;5288;42.334;23.876;2022-11-25T10:21:28;2.07;;;1.03;;
10481;SDS011;5288;42.334;23.876;2022-11-25T10:23:55;1.83;;;1.30;;
10481;SDS011;5288;42.334;23.876;2022-11-25T10:26:24;2.30;;;1.40;;
10481;SDS011;5288;42.334;23.876;2022-11-25T10:28:56;1.40;;;1.30;;
10481;SDS011;5288;42.334;23.876;2022-11-25T10:31:43;1.50;;;1.20;;
10481;SDS011;5288;42.334;23.876;2022-11-25T10:34:11;2.23;;;1.60;;
10481;SDS011;5288;42.334;23.876;2022-11-25T10:36:49;1.93;;;1.43;;
10481;SDS011;5288;42.334;23.876;2022-11-25T10:39:18;1.77;;;1.50;;
10481;SDS011;5288;42.334;23.876;2022-11-25T10:41:50;2.20;;;1.57;;
10481;SDS011;5288;42.334;23.876;2022-11-25T10:44:24;1.77;;;1.60;;
10481;SDS011;5288;42.334;23.876;2022-11-25T10:46:56;4.13;;;1.23;;
10481;SDS011;5288;42.334;23.876;2022-11-25T10:49:40;2.40;;;1.37;;
10481;SDS011;5288;42.334;23.876;2022-11-25T10:52:19;1.20;;;1.10;;
10481;SDS011;5288;42.334;23.876;2022-11-25T10:54:54;3.50;;;1.87;;
10481;SDS011;5288;42.334;23.876;2022-11-25T10:57:25;2.50;;;1.67;;
10481;SDS011;5288;42.334;23.876;2022-11-25T10:59:54;1.63;;;1.53;;
10481;SDS011;5288;42.334;23.876;2022-11-25T11:02:25;4.23;;;1.63;;
10481;SDS011;5288;42.334;23.876;2022-11-25T11:04:55;2.57;;;1.70;;
10481;SDS011;5288;42.334;23.876;2022-11-25T11:07:25;1.70;;;1.60;;
10481;SDS011;5288;42.334;23.876;2022-11-25T11:09:53;1.50;;;1.23;;
10481;SDS011;5288;42.334;23.876;2022-11-25T11:12:37;3.93;;;2.07;;
10481;SDS011;5288;42.334;23.876;2022-11-25T11:15:17;2.70;;;2.23;;
10481;SDS011;5288;42.334;23.876;2022-11-25T11:17:48;2.30;;;2.03;;
10481;SDS011;5288;42.334;23.876;2022-11-25T11:20:16;2.97;;;2.57;;
10481;SDS011;5288;42.334;23.876;2022-11-25T11:22:54;3.40;;;2.10;;
10481;SDS011;5288;42.334;23.876;2022-11-25T11:25:25;3.20;;;2.00;;
10481;SDS011;5288;42.334;23.876;2022-11-25T11:27:55;3.73;;;1.70;;
10481;SDS011;5288;42.334;23.876;2022-11-25T11:30:27;2.30;;;2.10;;
10481;SDS011;5288;42.334;23.876;2022-11-25T11:32:57;1.90;;;1.70;;
10481;SDS011;5288;42.334;23.876;2022-11-25T11:35:29;2.00;;;1.70;;
10481;SDS011;5288;42.334;23.876;2022-11-25T11:38:23;2.00;;;1.70;;
10481;SDS011;5288;42.334;23.876;2022-11-25T11:40:56;1.73;;;1.60;;
10481;SDS011;5288;42.334;23.876;2022-11-25T11:43:35;3.93;;;2.23;;
10481;SDS011;5288;42.334;23.876;2022-11-25T11:46:14;3.73;;;3.33;;
10481;SDS011;5288;42.334;23.876;2022-11-25T11:48:56;2.43;;;2.23;;
10481;SDS011;5288;42.334;23.876;2022-11-25T11:51:33;3.40;;;2.10;;
10481;SDS011;5288;42.334;23.876;2022-11-25T11:54:12;3.57;;;2.00;;
10481;SDS011;5288;42.334;23.876;2022-11-25T11:56:45;2.93;;;2.20;;
10481;SDS011;5288;42.334;23.876;2022-11-25T12:02:26;2.80;;;2.20;;
10481;SDS011;5288;42.334;23.876;2022-11-25T12:05:11;2.87;;;1.70;;
10481;SDS011;5288;42.334;23.876;2022-11-25T12:07:43;2.27;;;1.83;;
10481;SDS011;5288;42.334;23.876;2022-11-25T12:10:20;1.90;;;1.70;;
10481;SDS011;5288;42.334;23.876;2022-11-25T12:12:51;2.40;;;1.60;;
10481;SDS011;5288;42.334;23.876;2022-11-25T12:15:32;1.70;;;1.60;;
10481;SDS011;5288;42.334;23.876;2022-11-25T12:18:08;2.47;;;1.70;;
10481;SDS011;5288;42.334;23.876;2022-11-25T12:20:46;1.93;;;1.63;;
10481;SDS011;5288;42.334;23.876;2022-11-25T12:23:20;2.40;;;2.20;;
10481;SDS011;5288;42.334;23.876;2022-11-25T12:25:53;1.67;;;1.50;;
10481;SDS011;5288;42.334;23.876;2022-11-25T12:28:28;1.80;;;1.50;;
10481;SDS011;5288;42.334;23.876;2022-11-25T12:31:02;1.63;;;1.50;;
10481;SDS011;5288;42.334;23.876;2022-11-25T12:33:40;4.80;;;2.03;;
10481;SDS011;5288;42.334;23.876;2022-11-25T12:36:15;2.70;;;1.80;;
10481;SDS011;5288;42.334;23.876;2022-11-25T12:38:52;2.80;;;1.73;;
10481;SDS011;5288;42.334;23.876;2022-11-25T12:41:23;5.27;;;4.00;;
10481;SDS011;5288;42.334;23.876;2022-11-25T12:43:57;2.53;;;1.90;;
10481;SDS011;5288;42.334;23.876;2022-11-25T12:46:32;2.37;;;2.10;;
10481;SDS011;5288;42.334;23.876;2022-11-25T12:49:03;5.73;;;3.57;;
10481;SDS011;5288;42.334;23.876;2022-11-25T12:54:41;5.93;;;3.90;;
10481;SDS011;5288;42.334;23.876;2022-11-25T12:57:27;3.07;;;2.63;;
10481;SDS011;5288;42.334;23.876;2022-11-25T13:00:11;3.90;;;2.37;;
10481;SDS011;5288;42.334;23.876;2022-11-25T13:02:57;4.67;;;2.73;;
10481;SDS011;5288;42.334;23.876;2022-11-25T13:05:56;3.10;;;2.63;;
10481;SDS011;5288;42.334;23.876;2022-11-25T13:08:40;3.53;;;2.60;;
10481;SDS011;5288;42.334;23.876;2022-11-25T13:11:25;3.50;;;2.77;;
10481;SDS011;5288;42.334;23.876;2022-11-25T13:14:11;3.30;;;2.90;;
10481;SDS011;5288;42.334;23.876;2022-11-25T13:16:50;3.70;;;3.30;;
10481;SDS011;5288;42.334;23.876;2022-11-25T13:19:19;5.40;;;3.20;;
10481;SDS011;5288;42.334;23.876;2022-11-25T13:21:54;4.77;;;3.67;;
10481;SDS011;5288;42.334;23.876;2022-11-25T13:24:26;5.30;;;3.77;;
10481;SDS011;5288;42.334;23.876;2022-11-25T13:26:57;5.27;;;2.80;;
10481;SDS011;5288;42.334;23.876;2022-11-25T13:32:31;5.97;;;4.00;;
10481;SDS011;5288;42.334;23.876;2022-11-25T13:37:59;4.53;;;2.87;;
10481;SDS011;5288;42.334;23.876;2022-11-25T13:40:36;6.33;;;4.37;;
10481;SDS011;5288;42.334;23.876;2022-11-25T13:43:17;3.50;;;2.77;;
10481;SDS011;5288;42.334;23.876;2022-11-25T13:45:47;2.93;;;2.20;;
10481;SDS011;5288;42.334;23.876;2022-11-25T13:48:16;6.03;;;2.87;;
10481;SDS011;5288;42.334;23.876;2022-11-25T13:50:46;3.40;;;3.10;;
10481;SDS011;5288;42.334;23.876;2022-11-25T13:53:17;2.80;;;2.13;;
10481;SDS011;5288;42.334;23.876;2022-11-25T13:55:48;3.53;;;2.80;;
10481;SDS011;5288;42.334;23.876;2022-11-25T13:58:22;3.30;;;2.80;;
10481;SDS011;5288;42.334;23.876;2022-11-25T14:03:50;3.53;;;2.63;;
10481;SDS011;5288;42.334;23.876;2022-11-25T14:06:25;3.67;;;2.53;;
10481;SDS011;5288;42.334;23.876;2022-11-25T14:09:27;3.77;;;2.70;;
10481;SDS011;5288;42.334;23.876;2022-11-25T14:15:16;4.10;;;2.70;;
10481;SDS011;5288;42.334;23.876;2022-11-25T14:18:01;4.53;;;2.47;;
10481;SDS011;5288;42.334;23.876;2022-11-25T14:20:43;4.33;;;3.53;;
10481;SDS011;5288;42.334;23.876;2022-11-25T14:26:09;3.73;;;3.07;;
10481;SDS011;5288;42.334;23.876;2022-11-25T14:28:38;4.10;;;3.57;;
10481;SDS011;5288;42.334;23.876;2022-11-25T14:31:12;4.43;;;3.40;;
10481;SDS011;5288;42.334;23.876;2022-11-25T14:33:43;5.57;;;3.53;;
10481;SDS011;5288;42.334;23.876;2022-11-25T14:36:19;5.00;;;3.83;;
10481;SDS011;5288;42.334;23.876;2022-11-25T14:38:51;5.23;;;3.30;;
10481;SDS011;5288;42.334;23.876;2022-11-25T14:41:25;5.37;;;4.50;;
10481;SDS011;5288;42.334;23.876;2022-11-25T14:43:56;5.83;;;3.37;;
10481;SDS011;5288;42.334;23.876;2022-11-25T14:46:28;9.60;;;5.60;;
10481;SDS011;5288;42.334;23.876;2022-11-25T14:48:56;8.20;;;6.40;;
10481;SDS011;5288;42.334;23.876;2022-11-25T14:51:24;6.00;;;4.70;;
10481;SDS011;5288;42.334;23.876;2022-11-25T14:53:58;5.80;;;4.27;;
10481;SDS011;5288;42.334;23.876;2022-11-25T14:56:27;6.70;;;5.77;;
10481;SDS011;5288;42.334;23.876;2022-11-25T14:58:56;5.30;;;4.60;;
10481;SDS011;5288;42.334;23.876;2022-11-25T15:01:25;9.33;;;8.07;;
10481;SDS011;5288;42.334;23.876;2022-11-25T15:04:01;13.60;;;8.30;;
10481;SDS011;5288;42.334;23.876;2022-11-25T15:06:33;7.23;;;4.90;;
10481;SDS011;5288;42.334;23.876;2022-11-25T15:09:02;13.57;;;9.90;;
10481;SDS011;5288;42.334;23.876;2022-11-25T15:11:42;38.07;;;28.30;;
10481;SDS011;5288;42.334;23.876;2022-11-25T15:14:10;24.43;;;18.50;;
10481;SDS011;5288;42.334;23.876;2022-11-25T15:16:45;19.73;;;14.23;;
10481;SDS011;5288;42.334;23.876;2022-11-25T15:19:15;19.40;;;13.00;;
10481;SDS011;5288;42.334;23.876;2022-11-25T15:21:54;12.27;;;9.80;;
10481;SDS011;5288;42.334;23.876;2022-11-25T15:24:24;5.43;;;4.63;;
10481;SDS011;5288;42.334;23.876;2022-11-25T15:26:54;12.30;;;10.13;;
10481;SDS011;5288;42.334;23.876;2022-11-25T15:29:22;34.70;;;23.67;;